Platzwetter / Webcam

  • Aktuelles Bild
  • Verlauf
  • Verlauf
  • Verlauf
  • Verlauf
  • Verlauf
  • Verlauf
  • Verlauf
  • Verlauf
  • Verlauf
  • Verlauf
  • Verlauf
  • Verlauf
  • Verlauf
  • Verlauf
  • Verlauf
  • Verlauf
  • Verlauf

Flugwetter Linz

[Quelle: ADDS]
METAR
LOWL 071750Z AUTO VRB01KT 3000 R26/P1500N FZBR FEW001 BKN002 M02/M03 Q1036 TEMPO 2500 =
TAF
LOWL 071715Z 0718/0818 09003KT 3000 FZBR OVC005 TX02/0812Z TNM05/0800Z TEMPO 0718/0810 0300 FZFG VV001 PROB30 TEMPO 0811/0815 6000 SCT005 SCT100 =

Flugwetter Salzburg

[Quelle: ADDS]
METAR
LOWS 071750Z 16003KT 120V210 0800 R15/P1500U R33/0900U FZBCFG BKN001 M02/M02 Q1035 NOSIG =
TAF
LOWS 071715Z 0718/0818 15004KT 5000 FZBR OVC005 TX06/0813Z TNM05/0800Z TEMPO 0718/0809 0200 FZFG VV001 BECMG 0809/0811 8000 NSW SCT005 BKN010 PROB30 TEMPO 0811/0816 9999 SCT015 BECMG 0816/0818 4000 FZBR =

Fliegen lernen

Die Fliegerschule der WMW...

Termine & Events

Alle Termine anzeigen...

Aktuelles & News

+++ Aktuelle Spritpreise (02.11.2016): | Jet A-1 € 1,316 | Super Plus 98 ETBE € 1,370 | Avgas 100LL € 1,944 | +++